sensor_id;sensor_type;location;lat;lon;timestamp;P1;durP1;ratioP1;P2;durP2;ratioP2
64210;SDS011;50528;48.514;14.394;2022-11-14T00:01:31;9.10;;;6.30;;
64210;SDS011;50528;48.514;14.394;2022-11-14T00:02:54;7.60;;;6.30;;
64210;SDS011;50528;48.514;14.394;2022-11-14T00:04:16;9.00;;;6.60;;
64210;SDS011;50528;48.514;14.394;2022-11-14T00:05:58;8.10;;;5.60;;
64210;SDS011;50528;48.514;14.394;2022-11-14T00:07:23;9.80;;;6.10;;
64210;SDS011;50528;48.514;14.394;2022-11-14T00:08:48;7.80;;;5.90;;
64210;SDS011;50528;48.514;14.394;2022-11-14T00:10:13;9.00;;;6.20;;
64210;SDS011;50528;48.514;14.394;2022-11-14T00:11:36;8.90;;;6.60;;
64210;SDS011;50528;48.514;14.394;2022-11-14T00:12:58;8.60;;;6.30;;
64210;SDS011;50528;48.514;14.394;2022-11-14T00:14:22;8.20;;;5.90;;
64210;SDS011;50528;48.514;14.394;2022-11-14T00:15:49;9.10;;;6.60;;
64210;SDS011;50528;48.514;14.394;2022-11-14T00:17:15;8.60;;;6.00;;
64210;SDS011;50528;48.514;14.394;2022-11-14T00:18:37;8.50;;;6.20;;
64210;SDS011;50528;48.514;14.394;2022-11-14T00:20:03;9.50;;;6.20;;
64210;SDS011;50528;48.514;14.394;2022-11-14T00:21:26;8.30;;;6.10;;
64210;SDS011;50528;48.514;14.394;2022-11-14T00:22:48;8.80;;;5.90;;
64210;SDS011;50528;48.514;14.394;2022-11-14T00:24:10;8.80;;;6.50;;
64210;SDS011;50528;48.514;14.394;2022-11-14T00:25:33;9.40;;;5.90;;
64210;SDS011;50528;48.514;14.394;2022-11-14T00:26:55;9.10;;;6.70;;
64210;SDS011;50528;48.514;14.394;2022-11-14T00:28:17;9.70;;;6.90;;
64210;SDS011;50528;48.514;14.394;2022-11-14T00:29:39;7.80;;;5.70;;
64210;SDS011;50528;48.514;14.394;2022-11-14T00:31:02;9.90;;;6.60;;
64210;SDS011;50528;48.514;14.394;2022-11-14T00:32:24;9.50;;;6.30;;
64210;SDS011;50528;48.514;14.394;2022-11-14T00:33:47;8.70;;;6.80;;
64210;SDS011;50528;48.514;14.394;2022-11-14T00:35:09;10.50;;;6.90;;
64210;SDS011;50528;48.514;14.394;2022-11-14T00:36:31;9.40;;;6.80;;
64210;SDS011;50528;48.514;14.394;2022-11-14T00:37:54;9.60;;;6.90;;
64210;SDS011;50528;48.514;14.394;2022-11-14T00:39:16;8.80;;;6.70;;
64210;SDS011;50528;48.514;14.394;2022-11-14T00:40:38;8.90;;;6.90;;
64210;SDS011;50528;48.514;14.394;2022-11-14T00:42:04;9.00;;;6.40;;
64210;SDS011;50528;48.514;14.394;2022-11-14T00:43:28;8.90;;;6.80;;
64210;SDS011;50528;48.514;14.394;2022-11-14T00:44:50;9.00;;;6.30;;
64210;SDS011;50528;48.514;14.394;2022-11-14T00:46:13;8.90;;;6.40;;
64210;SDS011;50528;48.514;14.394;2022-11-14T00:47:34;9.00;;;6.40;;
64210;SDS011;50528;48.514;14.394;2022-11-14T00:48:56;9.20;;;6.30;;
64210;SDS011;50528;48.514;14.394;2022-11-14T00:50:19;9.20;;;6.90;;
64210;SDS011;50528;48.514;14.394;2022-11-14T00:51:41;10.20;;;6.90;;
64210;SDS011;50528;48.514;14.394;2022-11-14T00:53:03;8.80;;;6.50;;
64210;SDS011;50528;48.514;14.394;2022-11-14T00:54:25;10.20;;;6.50;;
64210;SDS011;50528;48.514;14.394;2022-11-14T00:55:47;10.20;;;6.50;;
64210;SDS011;50528;48.514;14.394;2022-11-14T00:57:09;9.00;;;6.80;;
64210;SDS011;50528;48.514;14.394;2022-11-14T00:58:31;8.90;;;7.00;;
64210;SDS011;50528;48.514;14.394;2022-11-14T00:59:53;8.70;;;6.50;;
64210;SDS011;50528;48.514;14.394;2022-11-14T01:01:16;10.70;;;6.00;;
64210;SDS011;50528;48.514;14.394;2022-11-14T01:02:40;10.90;;;6.70;;
64210;SDS011;50528;48.514;14.394;2022-11-14T01:04:02;8.50;;;6.20;;
64210;SDS011;50528;48.514;14.394;2022-11-14T01:05:25;9.60;;;7.10;;
64210;SDS011;50528;48.514;14.394;2022-11-14T01:06:48;9.20;;;6.80;;
64210;SDS011;50528;48.514;14.394;2022-11-14T01:08:10;10.10;;;6.40;;
64210;SDS011;50528;48.514;14.394;2022-11-14T01:09:34;9.10;;;5.90;;
64210;SDS011;50528;48.514;14.394;2022-11-14T01:10:56;8.00;;;6.10;;
64210;SDS011;50528;48.514;14.394;2022-11-14T01:12:18;9.10;;;6.90;;
64210;SDS011;50528;48.514;14.394;2022-11-14T01:13:41;9.40;;;6.40;;
64210;SDS011;50528;48.514;14.394;2022-11-14T01:15:04;7.40;;;6.10;;
64210;SDS011;50528;48.514;14.394;2022-11-14T01:16:26;9.70;;;6.50;;
64210;SDS011;50528;48.514;14.394;2022-11-14T01:17:48;8.00;;;6.20;;
64210;SDS011;50528;48.514;14.394;2022-11-14T01:19:10;9.20;;;6.70;;
64210;SDS011;50528;48.514;14.394;2022-11-14T01:20:32;7.80;;;6.10;;
64210;SDS011;50528;48.514;14.394;2022-11-14T01:21:54;8.90;;;6.60;;
64210;SDS011;50528;48.514;14.394;2022-11-14T01:23:16;9.60;;;6.60;;
64210;SDS011;50528;48.514;14.394;2022-11-14T01:24:38;9.30;;;6.70;;
64210;SDS011;50528;48.514;14.394;2022-11-14T01:26:01;8.50;;;6.60;;
64210;SDS011;50528;48.514;14.394;2022-11-14T01:27:25;9.40;;;6.40;;
64210;SDS011;50528;48.514;14.394;2022-11-14T01:28:50;9.10;;;6.60;;
64210;SDS011;50528;48.514;14.394;2022-11-14T01:30:14;8.40;;;6.50;;
64210;SDS011;50528;48.514;14.394;2022-11-14T01:31:36;8.00;;;6.30;;
64210;SDS011;50528;48.514;14.394;2022-11-14T01:32:58;8.10;;;6.10;;
64210;SDS011;50528;48.514;14.394;2022-11-14T01:34:21;8.50;;;6.20;;
64210;SDS011;50528;48.514;14.394;2022-11-14T01:35:43;8.30;;;6.40;;
64210;SDS011;50528;48.514;14.394;2022-11-14T01:37:05;8.70;;;6.20;;
64210;SDS011;50528;48.514;14.394;2022-11-14T01:38:27;7.90;;;6.20;;
64210;SDS011;50528;48.514;14.394;2022-11-14T01:39:50;9.00;;;6.80;;
64210;SDS011;50528;48.514;14.394;2022-11-14T01:41:13;11.40;;;6.20;;
64210;SDS011;50528;48.514;14.394;2022-11-14T01:42:35;9.80;;;6.20;;
64210;SDS011;50528;48.514;14.394;2022-11-14T01:43:57;8.90;;;6.40;;
64210;SDS011;50528;48.514;14.394;2022-11-14T01:47:23;8.10;;;6.20;;
64210;SDS011;50528;48.514;14.394;2022-11-14T01:48:59;9.90;;;6.10;;
64210;SDS011;50528;48.514;14.394;2022-11-14T01:50:33;7.60;;;5.60;;
64210;SDS011;50528;48.514;14.394;2022-11-14T01:53:25;9.50;;;6.70;;
64210;SDS011;50528;48.514;14.394;2022-11-14T01:54:49;10.70;;;6.70;;
64210;SDS011;50528;48.514;14.394;2022-11-14T01:56:16;8.80;;;6.80;;
64210;SDS011;50528;48.514;14.394;2022-11-14T01:57:43;8.30;;;6.30;;
64210;SDS011;50528;48.514;14.394;2022-11-14T01:59:08;8.60;;;6.40;;
64210;SDS011;50528;48.514;14.394;2022-11-14T02:00:34;8.90;;;6.30;;
64210;SDS011;50528;48.514;14.394;2022-11-14T02:01:56;8.70;;;6.80;;
64210;SDS011;50528;48.514;14.394;2022-11-14T02:03:22;8.70;;;6.40;;
64210;SDS011;50528;48.514;14.394;2022-11-14T02:04:50;12.10;;;6.50;;
64210;SDS011;50528;48.514;14.394;2022-11-14T02:06:18;8.30;;;6.00;;
64210;SDS011;50528;48.514;14.394;2022-11-14T02:07:42;8.70;;;6.30;;
64210;SDS011;50528;48.514;14.394;2022-11-14T02:09:05;7.80;;;5.80;;
64210;SDS011;50528;48.514;14.394;2022-11-14T02:10:28;9.50;;;6.50;;
64210;SDS011;50528;48.514;14.394;2022-11-14T02:11:50;7.70;;;6.10;;
64210;SDS011;50528;48.514;14.394;2022-11-14T02:13:15;8.60;;;6.60;;
64210;SDS011;50528;48.514;14.394;2022-11-14T02:14:37;8.70;;;6.30;;
64210;SDS011;50528;48.514;14.394;2022-11-14T02:16:00;8.60;;;6.30;;
64210;SDS011;50528;48.514;14.394;2022-11-14T02:17:22;8.80;;;6.50;;
64210;SDS011;50528;48.514;14.394;2022-11-14T02:18:51;9.40;;;6.40;;
64210;SDS011;50528;48.514;14.394;2022-11-14T02:20:14;7.80;;;5.60;;
64210;SDS011;50528;48.514;14.394;2022-11-14T02:21:39;8.50;;;6.00;;
64210;SDS011;50528;48.514;14.394;2022-11-14T02:23:04;9.60;;;6.10;;
64210;SDS011;50528;48.514;14.394;2022-11-14T02:24:25;8.70;;;6.20;;
64210;SDS011;50528;48.514;14.394;2022-11-14T02:27:08;8.00;;;5.80;;
64210;SDS011;50528;48.514;14.394;2022-11-14T02:28:31;9.70;;;5.90;;
64210;SDS011;50528;48.514;14.394;2022-11-14T02:29:53;8.10;;;5.60;;
64210;SDS011;50528;48.514;14.394;2022-11-14T02:31:15;9.00;;;6.50;;
64210;SDS011;50528;48.514;14.394;2022-11-14T02:32:39;8.60;;;5.60;;
64210;SDS011;50528;48.514;14.394;2022-11-14T02:34:21;8.70;;;6.20;;
64210;SDS011;50528;48.514;14.394;2022-11-14T02:35:43;8.00;;;5.70;;
64210;SDS011;50528;48.514;14.394;2022-11-14T02:37:05;8.10;;;5.60;;
64210;SDS011;50528;48.514;14.394;2022-11-14T02:38:27;7.70;;;5.40;;
64210;SDS011;50528;48.514;14.394;2022-11-14T02:39:50;7.80;;;5.60;;
64210;SDS011;50528;48.514;14.394;2022-11-14T02:41:12;7.80;;;5.70;;
64210;SDS011;50528;48.514;14.394;2022-11-14T02:42:34;8.50;;;6.10;;
64210;SDS011;50528;48.514;14.394;2022-11-14T02:43:56;8.50;;;5.90;;
64210;SDS011;50528;48.514;14.394;2022-11-14T02:45:20;7.70;;;6.00;;
64210;SDS011;50528;48.514;14.394;2022-11-14T02:46:42;7.60;;;5.90;;
64210;SDS011;50528;48.514;14.394;2022-11-14T02:48:05;7.90;;;6.00;;
64210;SDS011;50528;48.514;14.394;2022-11-14T02:49:27;7.20;;;5.50;;
64210;SDS011;50528;48.514;14.394;2022-11-14T02:50:49;8.30;;;5.80;;
64210;SDS011;50528;48.514;14.394;2022-11-14T02:52:11;8.00;;;5.70;;
64210;SDS011;50528;48.514;14.394;2022-11-14T02:53:33;8.20;;;5.90;;
64210;SDS011;50528;48.514;14.394;2022-11-14T02:54:55;7.40;;;5.50;;
64210;SDS011;50528;48.514;14.394;2022-11-14T02:56:17;7.50;;;5.40;;
64210;SDS011;50528;48.514;14.394;2022-11-14T02:57:39;8.70;;;5.80;;
64210;SDS011;50528;48.514;14.394;2022-11-14T02:59:00;10.10;;;6.30;;
64210;SDS011;50528;48.514;14.394;2022-11-14T03:00:22;9.50;;;5.60;;
64210;SDS011;50528;48.514;14.394;2022-11-14T03:01:44;8.10;;;5.60;;
64210;SDS011;50528;48.514;14.394;2022-11-14T03:03:06;7.70;;;5.70;;
64210;SDS011;50528;48.514;14.394;2022-11-14T03:04:28;8.00;;;5.80;;
64210;SDS011;50528;48.514;14.394;2022-11-14T03:05:50;7.80;;;5.40;;
64210;SDS011;50528;48.514;14.394;2022-11-14T03:07:14;8.20;;;5.50;;
64210;SDS011;50528;48.514;14.394;2022-11-14T03:08:36;7.70;;;5.80;;
64210;SDS011;50528;48.514;14.394;2022-11-14T03:09:58;10.10;;;6.00;;
64210;SDS011;50528;48.514;14.394;2022-11-14T03:11:20;8.60;;;5.90;;
64210;SDS011;50528;48.514;14.394;2022-11-14T03:12:42;7.70;;;5.40;;
64210;SDS011;50528;48.514;14.394;2022-11-14T03:14:04;8.60;;;5.70;;
64210;SDS011;50528;48.514;14.394;2022-11-14T03:15:25;7.70;;;5.20;;
64210;SDS011;50528;48.514;14.394;2022-11-14T03:16:47;8.10;;;5.60;;
64210;SDS011;50528;48.514;14.394;2022-11-14T03:18:09;8.90;;;5.60;;
64210;SDS011;50528;48.514;14.394;2022-11-14T03:19:31;8.30;;;5.00;;
64210;SDS011;50528;48.514;14.394;2022-11-14T03:20:53;7.80;;;5.40;;
64210;SDS011;50528;48.514;14.394;2022-11-14T03:22:15;7.00;;;5.40;;
64210;SDS011;50528;48.514;14.394;2022-11-14T03:23:37;7.60;;;5.40;;
64210;SDS011;50528;48.514;14.394;2022-11-14T03:24:59;8.60;;;5.30;;
64210;SDS011;50528;48.514;14.394;2022-11-14T03:26:21;7.50;;;5.20;;
64210;SDS011;50528;48.514;14.394;2022-11-14T03:27:43;7.90;;;5.10;;
64210;SDS011;50528;48.514;14.394;2022-11-14T03:29:06;8.10;;;5.20;;
64210;SDS011;50528;48.514;14.394;2022-11-14T03:30:28;8.20;;;5.40;;
64210;SDS011;50528;48.514;14.394;2022-11-14T03:31:52;7.80;;;5.40;;
64210;SDS011;50528;48.514;14.394;2022-11-14T03:33:14;7.40;;;5.50;;
64210;SDS011;50528;48.514;14.394;2022-11-14T03:34:36;7.40;;;5.60;;
64210;SDS011;50528;48.514;14.394;2022-11-14T03:35:59;8.20;;;5.40;;
64210;SDS011;50528;48.514;14.394;2022-11-14T03:37:21;8.10;;;5.50;;
64210;SDS011;50528;48.514;14.394;2022-11-14T03:38:43;7.50;;;5.80;;
64210;SDS011;50528;48.514;14.394;2022-11-14T03:40:06;8.70;;;5.50;;
64210;SDS011;50528;48.514;14.394;2022-11-14T03:41:29;7.20;;;5.60;;
64210;SDS011;50528;48.514;14.394;2022-11-14T03:42:51;8.20;;;5.60;;
64210;SDS011;50528;48.514;14.394;2022-11-14T03:44:13;8.20;;;5.80;;
64210;SDS011;50528;48.514;14.394;2022-11-14T03:45:35;7.40;;;5.40;;
64210;SDS011;50528;48.514;14.394;2022-11-14T03:46:58;7.00;;;5.10;;
64210;SDS011;50528;48.514;14.394;2022-11-14T03:48:21;7.40;;;5.40;;
64210;SDS011;50528;48.514;14.394;2022-11-14T03:49:43;6.70;;;5.20;;
64210;SDS011;50528;48.514;14.394;2022-11-14T03:51:08;7.40;;;5.40;;
64210;SDS011;50528;48.514;14.394;2022-11-14T03:52:30;7.90;;;5.50;;
64210;SDS011;50528;48.514;14.394;2022-11-14T03:53:52;8.70;;;5.60;;
64210;SDS011;50528;48.514;14.394;2022-11-14T03:55:14;7.30;;;5.40;;
64210;SDS011;50528;48.514;14.394;2022-11-14T03:56:36;8.70;;;5.30;;
64210;SDS011;50528;48.514;14.394;2022-11-14T03:57:58;8.00;;;5.20;;
64210;SDS011;50528;48.514;14.394;2022-11-14T03:59:21;7.20;;;5.20;;
64210;SDS011;50528;48.514;14.394;2022-11-14T04:02:04;7.10;;;4.70;;
64210;SDS011;50528;48.514;14.394;2022-11-14T04:03:26;7.10;;;5.10;;
64210;SDS011;50528;48.514;14.394;2022-11-14T04:04:48;7.50;;;5.10;;
64210;SDS011;50528;48.514;14.394;2022-11-14T04:06:11;7.10;;;5.30;;
64210;SDS011;50528;48.514;14.394;2022-11-14T04:07:33;7.70;;;5.10;;
64210;SDS011;50528;48.514;14.394;2022-11-14T04:08:56;7.00;;;5.00;;
64210;SDS011;50528;48.514;14.394;2022-11-14T04:10:18;8.50;;;5.30;;
64210;SDS011;50528;48.514;14.394;2022-11-14T04:11:40;6.90;;;5.30;;
64210;SDS011;50528;48.514;14.394;2022-11-14T04:13:03;8.80;;;6.10;;
64210;SDS011;50528;48.514;14.394;2022-11-14T04:14:26;9.10;;;5.80;;
64210;SDS011;50528;48.514;14.394;2022-11-14T04:15:52;9.90;;;5.70;;
64210;SDS011;50528;48.514;14.394;2022-11-14T04:17:15;7.90;;;5.80;;
64210;SDS011;50528;48.514;14.394;2022-11-14T04:18:38;7.70;;;5.50;;
64210;SDS011;50528;48.514;14.394;2022-11-14T04:20:00;9.10;;;5.60;;
64210;SDS011;50528;48.514;14.394;2022-11-14T04:21:22;7.40;;;5.50;;
64210;SDS011;50528;48.514;14.394;2022-11-14T04:22:44;7.90;;;5.50;;
64210;SDS011;50528;48.514;14.394;2022-11-14T04:24:07;7.70;;;5.30;;
64210;SDS011;50528;48.514;14.394;2022-11-14T04:25:31;7.00;;;5.10;;
64210;SDS011;50528;48.514;14.394;2022-11-14T04:26:54;8.80;;;5.20;;
64210;SDS011;50528;48.514;14.394;2022-11-14T04:28:16;8.20;;;5.20;;
64210;SDS011;50528;48.514;14.394;2022-11-14T04:29:38;6.40;;;4.80;;
64210;SDS011;50528;48.514;14.394;2022-11-14T04:30:59;7.00;;;4.80;;
64210;SDS011;50528;48.514;14.394;2022-11-14T04:32:21;8.20;;;5.10;;
64210;SDS011;50528;48.514;14.394;2022-11-14T04:33:43;6.60;;;5.00;;
64210;SDS011;50528;48.514;14.394;2022-11-14T04:35:05;7.50;;;5.00;;
64210;SDS011;50528;48.514;14.394;2022-11-14T04:36:27;7.60;;;4.80;;
64210;SDS011;50528;48.514;14.394;2022-11-14T04:37:49;7.30;;;5.30;;
64210;SDS011;50528;48.514;14.394;2022-11-14T04:39:11;7.60;;;5.30;;
64210;SDS011;50528;48.514;14.394;2022-11-14T04:40:33;7.10;;;4.80;;
64210;SDS011;50528;48.514;14.394;2022-11-14T04:41:55;7.80;;;5.30;;
64210;SDS011;50528;48.514;14.394;2022-11-14T04:43:18;6.80;;;4.80;;
64210;SDS011;50528;48.514;14.394;2022-11-14T04:44:41;6.50;;;5.00;;
64210;SDS011;50528;48.514;14.394;2022-11-14T04:46:03;7.60;;;5.20;;
64210;SDS011;50528;48.514;14.394;2022-11-14T04:47:25;6.60;;;5.00;;
64210;SDS011;50528;48.514;14.394;2022-11-14T04:48:47;8.40;;;5.20;;
64210;SDS011;50528;48.514;14.394;2022-11-14T04:50:12;7.40;;;4.90;;
64210;SDS011;50528;48.514;14.394;2022-11-14T04:51:34;6.90;;;4.90;;
64210;SDS011;50528;48.514;14.394;2022-11-14T04:52:56;7.10;;;4.70;;
64210;SDS011;50528;48.514;14.394;2022-11-14T04:54:19;7.30;;;4.90;;
64210;SDS011;50528;48.514;14.394;2022-11-14T04:55:42;6.80;;;4.80;;
64210;SDS011;50528;48.514;14.394;2022-11-14T04:57:05;7.70;;;5.00;;
64210;SDS011;50528;48.514;14.394;2022-11-14T04:58:27;7.90;;;5.10;;
64210;SDS011;50528;48.514;14.394;2022-11-14T04:59:49;7.20;;;5.00;;
64210;SDS011;50528;48.514;14.394;2022-11-14T05:01:12;7.70;;;4.90;;
64210;SDS011;50528;48.514;14.394;2022-11-14T05:02:35;7.30;;;5.00;;
64210;SDS011;50528;48.514;14.394;2022-11-14T05:03:58;7.10;;;4.90;;
64210;SDS011;50528;48.514;14.394;2022-11-14T05:05:20;7.00;;;4.80;;
64210;SDS011;50528;48.514;14.394;2022-11-14T05:06:42;6.10;;;4.70;;
64210;SDS011;50528;48.514;14.394;2022-11-14T05:08:04;7.30;;;4.90;;
64210;SDS011;50528;48.514;14.394;2022-11-14T05:09:27;6.60;;;4.50;;
64210;SDS011;50528;48.514;14.394;2022-11-14T05:10:49;6.90;;;4.80;;
64210;SDS011;50528;48.514;14.394;2022-11-14T05:12:11;6.90;;;4.60;;
64210;SDS011;50528;48.514;14.394;2022-11-14T05:13:33;7.20;;;4.80;;
64210;SDS011;50528;48.514;14.394;2022-11-14T05:14:56;6.90;;;4.90;;
64210;SDS011;50528;48.514;14.394;2022-11-14T05:16:17;6.30;;;4.50;;
64210;SDS011;50528;48.514;14.394;2022-11-14T05:17:40;7.00;;;4.80;;
64210;SDS011;50528;48.514;14.394;2022-11-14T05:19:02;6.90;;;4.90;;
64210;SDS011;50528;48.514;14.394;2022-11-14T05:20:24;7.00;;;4.90;;
64210;SDS011;50528;48.514;14.394;2022-11-14T05:21:46;7.90;;;5.20;;
64210;SDS011;50528;48.514;14.394;2022-11-14T05:23:19;6.60;;;4.80;;
64210;SDS011;50528;48.514;14.394;2022-11-14T05:24:46;6.70;;;4.20;;
64210;SDS011;50528;48.514;14.394;2022-11-14T05:26:09;7.90;;;5.20;;
64210;SDS011;50528;48.514;14.394;2022-11-14T05:27:33;7.00;;;5.00;;
64210;SDS011;50528;48.514;14.394;2022-11-14T05:28:55;7.20;;;4.90;;
64210;SDS011;50528;48.514;14.394;2022-11-14T05:30:17;7.60;;;5.10;;
64210;SDS011;50528;48.514;14.394;2022-11-14T05:31:40;6.70;;;4.50;;
64210;SDS011;50528;48.514;14.394;2022-11-14T05:33:02;7.50;;;4.70;;
64210;SDS011;50528;48.514;14.394;2022-11-14T05:34:23;6.60;;;4.50;;
64210;SDS011;50528;48.514;14.394;2022-11-14T05:35:45;6.10;;;4.30;;
64210;SDS011;50528;48.514;14.394;2022-11-14T05:37:07;6.80;;;4.40;;
64210;SDS011;50528;48.514;14.394;2022-11-14T05:38:29;7.00;;;4.20;;
64210;SDS011;50528;48.514;14.394;2022-11-14T05:39:52;6.40;;;4.50;;
64210;SDS011;50528;48.514;14.394;2022-11-14T05:41:16;6.60;;;4.70;;
64210;SDS011;50528;48.514;14.394;2022-11-14T05:42:40;7.10;;;4.70;;
64210;SDS011;50528;48.514;14.394;2022-11-14T05:44:05;6.20;;;4.60;;
64210;SDS011;50528;48.514;14.394;2022-11-14T05:45:29;6.70;;;4.60;;
64210;SDS011;50528;48.514;14.394;2022-11-14T05:46:51;6.50;;;4.50;;
64210;SDS011;50528;48.514;14.394;2022-11-14T05:48:13;6.60;;;4.40;;
64210;SDS011;50528;48.514;14.394;2022-11-14T05:49:35;7.10;;;4.70;;
64210;SDS011;50528;48.514;14.394;2022-11-14T05:50:58;6.00;;;4.30;;
64210;SDS011;50528;48.514;14.394;2022-11-14T05:52:22;6.80;;;4.50;;
64210;SDS011;50528;48.514;14.394;2022-11-14T05:53:45;7.30;;;4.60;;
64210;SDS011;50528;48.514;14.394;2022-11-14T05:55:07;5.70;;;4.20;;
64210;SDS011;50528;48.514;14.394;2022-11-14T05:56:30;7.00;;;4.40;;
64210;SDS011;50528;48.514;14.394;2022-11-14T05:57:52;6.00;;;4.20;;
64210;SDS011;50528;48.514;14.394;2022-11-14T05:59:14;6.70;;;4.70;;
64210;SDS011;50528;48.514;14.394;2022-11-14T06:00:36;6.20;;;4.30;;
64210;SDS011;50528;48.514;14.394;2022-11-14T06:02:09;5.90;;;4.30;;
64210;SDS011;50528;48.514;14.394;2022-11-14T06:03:34;6.90;;;4.70;;
64210;SDS011;50528;48.514;14.394;2022-11-14T06:04:58;8.20;;;4.50;;
64210;SDS011;50528;48.514;14.394;2022-11-14T06:06:20;6.80;;;4.40;;
64210;SDS011;50528;48.514;14.394;2022-11-14T06:07:42;7.40;;;4.50;;
64210;SDS011;50528;48.514;14.394;2022-11-14T06:09:04;6.40;;;4.60;;
64210;SDS011;50528;48.514;14.394;2022-11-14T06:10:26;7.70;;;4.70;;
64210;SDS011;50528;48.514;14.394;2022-11-14T06:11:48;7.20;;;4.80;;
64210;SDS011;50528;48.514;14.394;2022-11-14T06:13:10;6.50;;;4.50;;
64210;SDS011;50528;48.514;14.394;2022-11-14T06:14:33;7.60;;;5.10;;
64210;SDS011;50528;48.514;14.394;2022-11-14T06:16:01;6.20;;;4.50;;
64210;SDS011;50528;48.514;14.394;2022-11-14T06:17:25;6.60;;;4.40;;
64210;SDS011;50528;48.514;14.394;2022-11-14T06:18:48;5.60;;;4.20;;
64210;SDS011;50528;48.514;14.394;2022-11-14T06:20:13;6.40;;;4.50;;
64210;SDS011;50528;48.514;14.394;2022-11-14T06:21:36;6.30;;;4.20;;
64210;SDS011;50528;48.514;14.394;2022-11-14T06:22:58;6.70;;;4.80;;
64210;SDS011;50528;48.514;14.394;2022-11-14T06:24:23;6.70;;;4.80;;
64210;SDS011;50528;48.514;14.394;2022-11-14T06:26:02;7.40;;;4.40;;
64210;SDS011;50528;48.514;14.394;2022-11-14T06:27:26;7.10;;;4.50;;
64210;SDS011;50528;48.514;14.394;2022-11-14T06:28:48;6.00;;;4.10;;
64210;SDS011;50528;48.514;14.394;2022-11-14T06:30:11;6.20;;;4.40;;
64210;SDS011;50528;48.514;14.394;2022-11-14T06:31:58;5.80;;;4.00;;
64210;SDS011;50528;48.514;14.394;2022-11-14T06:33:21;7.20;;;4.30;;
64210;SDS011;50528;48.514;14.394;2022-11-14T06:34:43;6.00;;;4.30;;
64210;SDS011;50528;48.514;14.394;2022-11-14T06:36:05;5.60;;;4.10;;
64210;SDS011;50528;48.514;14.394;2022-11-14T06:37:28;6.60;;;4.10;;
64210;SDS011;50528;48.514;14.394;2022-11-14T06:38:54;6.30;;;4.10;;
64210;SDS011;50528;48.514;14.394;2022-11-14T06:40:16;6.00;;;4.20;;
64210;SDS011;50528;48.514;14.394;2022-11-14T06:41:38;6.20;;;4.00;;
64210;SDS011;50528;48.514;14.394;2022-11-14T06:43:01;7.30;;;4.00;;
64210;SDS011;50528;48.514;14.394;2022-11-14T06:44:23;6.50;;;4.50;;
64210;SDS011;50528;48.514;14.394;2022-11-14T06:45:54;6.30;;;4.40;;
64210;SDS011;50528;48.514;14.394;2022-11-14T06:47:16;6.70;;;3.80;;
64210;SDS011;50528;48.514;14.394;2022-11-14T06:48:39;6.20;;;4.10;;
64210;SDS011;50528;48.514;14.394;2022-11-14T06:50:01;6.00;;;4.30;;
64210;SDS011;50528;48.514;14.394;2022-11-14T06:51:24;5.90;;;3.90;;
64210;SDS011;50528;48.514;14.394;2022-11-14T06:52:46;6.40;;;4.40;;
64210;SDS011;50528;48.514;14.394;2022-11-14T06:54:12;6.40;;;4.20;;
64210;SDS011;50528;48.514;14.394;2022-11-14T06:55:34;6.00;;;4.00;;
64210;SDS011;50528;48.514;14.394;2022-11-14T06:56:56;5.80;;;4.20;;
64210;SDS011;50528;48.514;14.394;2022-11-14T06:58:18;6.60;;;4.60;;
64210;SDS011;50528;48.514;14.394;2022-11-14T06:59:40;6.50;;;4.10;;
64210;SDS011;50528;48.514;14.394;2022-11-14T07:01:03;6.30;;;4.10;;
64210;SDS011;50528;48.514;14.394;2022-11-14T07:02:26;7.10;;;4.20;;
64210;SDS011;50528;48.514;14.394;2022-11-14T07:03:49;6.60;;;4.50;;
64210;SDS011;50528;48.514;14.394;2022-11-14T07:05:11;6.40;;;3.90;;
64210;SDS011;50528;48.514;14.394;2022-11-14T07:06:33;6.30;;;3.70;;
64210;SDS011;50528;48.514;14.394;2022-11-14T07:07:57;6.30;;;4.30;;
64210;SDS011;50528;48.514;14.394;2022-11-14T07:09:19;5.80;;;4.20;;
64210;SDS011;50528;48.514;14.394;2022-11-14T07:10:41;7.00;;;4.80;;
64210;SDS011;50528;48.514;14.394;2022-11-14T07:12:04;6.40;;;4.10;;
64210;SDS011;50528;48.514;14.394;2022-11-14T07:13:26;6.40;;;4.10;;
64210;SDS011;50528;48.514;14.394;2022-11-14T07:14:53;5.50;;;4.10;;
64210;SDS011;50528;48.514;14.394;2022-11-14T07:16:15;5.40;;;4.10;;
64210;SDS011;50528;48.514;14.394;2022-11-14T07:17:38;5.70;;;4.20;;
64210;SDS011;50528;48.514;14.394;2022-11-14T07:19:01;5.90;;;4.40;;
64210;SDS011;50528;48.514;14.394;2022-11-14T07:20:25;5.50;;;4.10;;
64210;SDS011;50528;48.514;14.394;2022-11-14T07:21:47;5.60;;;3.90;;
64210;SDS011;50528;48.514;14.394;2022-11-14T07:23:10;5.80;;;3.90;;
64210;SDS011;50528;48.514;14.394;2022-11-14T07:24:31;8.30;;;3.80;;
64210;SDS011;50528;48.514;14.394;2022-11-14T07:25:54;5.30;;;3.90;;
64210;SDS011;50528;48.514;14.394;2022-11-14T07:27:17;5.20;;;3.70;;
64210;SDS011;50528;48.514;14.394;2022-11-14T07:28:40;4.70;;;3.70;;
64210;SDS011;50528;48.514;14.394;2022-11-14T07:30:05;4.80;;;3.50;;
64210;SDS011;50528;48.514;14.394;2022-11-14T07:31:27;4.70;;;3.30;;
64210;SDS011;50528;48.514;14.394;2022-11-14T07:32:58;5.10;;;3.50;;
64210;SDS011;50528;48.514;14.394;2022-11-14T07:34:21;5.60;;;3.70;;
64210;SDS011;50528;48.514;14.394;2022-11-14T07:35:43;7.90;;;3.50;;
64210;SDS011;50528;48.514;14.394;2022-11-14T07:37:05;4.60;;;3.30;;
64210;SDS011;50528;48.514;14.394;2022-11-14T07:38:27;4.70;;;3.40;;
64210;SDS011;50528;48.514;14.394;2022-11-14T07:39:52;4.20;;;3.00;;
64210;SDS011;50528;48.514;14.394;2022-11-14T07:41:15;4.40;;;3.10;;
64210;SDS011;50528;48.514;14.394;2022-11-14T07:42:40;5.40;;;3.40;;
64210;SDS011;50528;48.514;14.394;2022-11-14T07:44:02;4.70;;;3.20;;
64210;SDS011;50528;48.514;14.394;2022-11-14T07:45:25;5.30;;;3.50;;
64210;SDS011;50528;48.514;14.394;2022-11-14T07:46:48;4.90;;;3.40;;
64210;SDS011;50528;48.514;14.394;2022-11-14T07:48:11;4.10;;;3.10;;
64210;SDS011;50528;48.514;14.394;2022-11-14T07:49:36;4.60;;;3.30;;
64210;SDS011;50528;48.514;14.394;2022-11-14T07:50:58;4.90;;;3.10;;
64210;SDS011;50528;48.514;14.394;2022-11-14T07:52:21;4.30;;;3.10;;
64210;SDS011;50528;48.514;14.394;2022-11-14T07:53:44;4.20;;;3.20;;
64210;SDS011;50528;48.514;14.394;2022-11-14T07:55:09;4.70;;;3.00;;
64210;SDS011;50528;48.514;14.394;2022-11-14T07:56:31;4.70;;;3.20;;
64210;SDS011;50528;48.514;14.394;2022-11-14T07:57:54;3.90;;;3.00;;
64210;SDS011;50528;48.514;14.394;2022-11-14T07:59:20;5.00;;;3.30;;
64210;SDS011;50528;48.514;14.394;2022-11-14T08:00:42;3.90;;;2.90;;
64210;SDS011;50528;48.514;14.394;2022-11-14T08:02:07;3.60;;;2.70;;
64210;SDS011;50528;48.514;14.394;2022-11-14T08:03:36;6.10;;;3.20;;
64210;SDS011;50528;48.514;14.394;2022-11-14T08:05:05;4.10;;;3.00;;
64210;SDS011;50528;48.514;14.394;2022-11-14T08:06:27;4.80;;;3.00;;
64210;SDS011;50528;48.514;14.394;2022-11-14T08:07:50;4.30;;;2.90;;
64210;SDS011;50528;48.514;14.394;2022-11-14T08:09:12;4.10;;;3.10;;
64210;SDS011;50528;48.514;14.394;2022-11-14T08:10:34;7.00;;;3.10;;
64210;SDS011;50528;48.514;14.394;2022-11-14T08:11:57;5.40;;;3.10;;
64210;SDS011;50528;48.514;14.394;2022-11-14T08:13:21;4.40;;;2.70;;
64210;SDS011;50528;48.514;14.394;2022-11-14T08:14:53;3.80;;;2.50;;
64210;SDS011;50528;48.514;14.394;2022-11-14T08:16:18;3.90;;;2.80;;
64210;SDS011;50528;48.514;14.394;2022-11-14T08:17:41;4.40;;;2.70;;
64210;SDS011;50528;48.514;14.394;2022-11-14T08:19:03;3.80;;;2.60;;
64210;SDS011;50528;48.514;14.394;2022-11-14T08:20:26;4.50;;;2.50;;